sensor_id;sensor_type;location;lat;lon;timestamp;P1;durP1;ratioP1;P2;durP2;ratioP2
11911;SDS011;6016;41.928;25.556;2022-08-24T00:00:14;6.82;;;3.95;;
11911;SDS011;6016;41.928;25.556;2022-08-24T00:02:43;5.95;;;3.42;;
11911;SDS011;6016;41.928;25.556;2022-08-24T00:05:10;8.23;;;4.25;;
11911;SDS011;6016;41.928;25.556;2022-08-24T00:07:37;6.13;;;3.80;;
11911;SDS011;6016;41.928;25.556;2022-08-24T00:10:05;7.70;;;4.90;;
11911;SDS011;6016;41.928;25.556;2022-08-24T00:12:34;7.47;;;4.63;;
11911;SDS011;6016;41.928;25.556;2022-08-24T00:15:03;4.45;;;3.33;;
11911;SDS011;6016;41.928;25.556;2022-08-24T00:17:32;6.63;;;3.53;;
11911;SDS011;6016;41.928;25.556;2022-08-24T00:19:59;4.72;;;3.65;;
11911;SDS011;6016;41.928;25.556;2022-08-24T00:22:26;10.52;;;4.60;;
11911;SDS011;6016;41.928;25.556;2022-08-24T00:24:53;6.32;;;4.03;;
11911;SDS011;6016;41.928;25.556;2022-08-24T00:27:21;6.47;;;4.60;;
11911;SDS011;6016;41.928;25.556;2022-08-24T00:29:48;8.85;;;4.35;;
11911;SDS011;6016;41.928;25.556;2022-08-24T00:32:16;5.60;;;3.53;;
11911;SDS011;6016;41.928;25.556;2022-08-24T00:34:43;7.35;;;4.65;;
11911;SDS011;6016;41.928;25.556;2022-08-24T00:37:12;5.93;;;3.58;;
11911;SDS011;6016;41.928;25.556;2022-08-24T00:39:39;6.45;;;4.00;;
11911;SDS011;6016;41.928;25.556;2022-08-24T00:42:06;9.10;;;4.15;;
11911;SDS011;6016;41.928;25.556;2022-08-24T00:44:34;7.20;;;4.75;;
11911;SDS011;6016;41.928;25.556;2022-08-24T00:47:01;4.22;;;3.53;;
11911;SDS011;6016;41.928;25.556;2022-08-24T00:49:34;5.10;;;3.30;;
11911;SDS011;6016;41.928;25.556;2022-08-24T00:52:06;7.65;;;4.68;;
11911;SDS011;6016;41.928;25.556;2022-08-24T00:57:06;6.65;;;3.70;;
11911;SDS011;6016;41.928;25.556;2022-08-24T00:59:37;6.78;;;4.68;;
11911;SDS011;6016;41.928;25.556;2022-08-24T01:02:07;9.88;;;6.65;;
11911;SDS011;6016;41.928;25.556;2022-08-24T01:04:40;8.82;;;6.47;;
11911;SDS011;6016;41.928;25.556;2022-08-24T01:07:13;10.63;;;6.18;;
11911;SDS011;6016;41.928;25.556;2022-08-24T01:09:40;5.15;;;4.47;;
11911;SDS011;6016;41.928;25.556;2022-08-24T01:12:07;10.48;;;6.35;;
11911;SDS011;6016;41.928;25.556;2022-08-24T01:14:34;9.27;;;6.13;;
11911;SDS011;6016;41.928;25.556;2022-08-24T01:17:02;8.38;;;5.85;;
11911;SDS011;6016;41.928;25.556;2022-08-24T01:19:49;7.00;;;5.53;;
11911;SDS011;6016;41.928;25.556;2022-08-24T01:22:22;6.90;;;4.50;;
11911;SDS011;6016;41.928;25.556;2022-08-24T01:25:01;9.02;;;6.18;;
11911;SDS011;6016;41.928;25.556;2022-08-24T01:27:29;6.60;;;5.07;;
11911;SDS011;6016;41.928;25.556;2022-08-24T01:29:57;7.60;;;5.65;;
11911;SDS011;6016;41.928;25.556;2022-08-24T01:32:25;6.07;;;4.65;;
11911;SDS011;6016;41.928;25.556;2022-08-24T01:34:53;8.93;;;5.75;;
11911;SDS011;6016;41.928;25.556;2022-08-24T01:37:21;7.45;;;5.32;;
11911;SDS011;6016;41.928;25.556;2022-08-24T01:39:49;7.25;;;5.72;;
11911;SDS011;6016;41.928;25.556;2022-08-24T01:42:20;9.63;;;5.35;;
11911;SDS011;6016;41.928;25.556;2022-08-24T01:44:47;7.88;;;4.75;;
11911;SDS011;6016;41.928;25.556;2022-08-24T01:47:15;9.45;;;5.65;;
11911;SDS011;6016;41.928;25.556;2022-08-24T01:49:43;9.35;;;5.93;;
11911;SDS011;6016;41.928;25.556;2022-08-24T01:52:14;9.45;;;5.90;;
11911;SDS011;6016;41.928;25.556;2022-08-24T01:54:43;6.85;;;4.25;;
11911;SDS011;6016;41.928;25.556;2022-08-24T01:57:11;9.70;;;5.20;;
11911;SDS011;6016;41.928;25.556;2022-08-24T01:59:39;7.25;;;5.13;;
11911;SDS011;6016;41.928;25.556;2022-08-24T02:02:07;7.20;;;4.60;;
11911;SDS011;6016;41.928;25.556;2022-08-24T02:04:36;8.48;;;5.15;;
11911;SDS011;6016;41.928;25.556;2022-08-24T02:07:03;7.25;;;4.88;;
11911;SDS011;6016;41.928;25.556;2022-08-24T02:09:31;8.40;;;5.05;;
11911;SDS011;6016;41.928;25.556;2022-08-24T02:11:58;7.35;;;4.60;;
11911;SDS011;6016;41.928;25.556;2022-08-24T02:14:25;9.52;;;4.13;;
11911;SDS011;6016;41.928;25.556;2022-08-24T02:16:55;6.63;;;4.20;;
11911;SDS011;6016;41.928;25.556;2022-08-24T02:19:23;7.97;;;4.60;;
11911;SDS011;6016;41.928;25.556;2022-08-24T02:21:51;5.68;;;4.32;;
11911;SDS011;6016;41.928;25.556;2022-08-24T02:24:18;8.13;;;5.60;;
11911;SDS011;6016;41.928;25.556;2022-08-24T02:26:45;7.80;;;6.22;;
11911;SDS011;6016;41.928;25.556;2022-08-24T02:29:13;8.75;;;5.57;;
11911;SDS011;6016;41.928;25.556;2022-08-24T02:31:40;10.02;;;6.30;;
11911;SDS011;6016;41.928;25.556;2022-08-24T02:34:08;8.13;;;5.88;;
11911;SDS011;6016;41.928;25.556;2022-08-24T02:36:35;7.00;;;4.60;;
11911;SDS011;6016;41.928;25.556;2022-08-24T02:39:03;13.25;;;7.00;;
11911;SDS011;6016;41.928;25.556;2022-08-24T02:41:30;8.88;;;5.53;;
11911;SDS011;6016;41.928;25.556;2022-08-24T02:43:58;8.98;;;5.50;;
11911;SDS011;6016;41.928;25.556;2022-08-24T02:46:26;7.80;;;5.38;;
11911;SDS011;6016;41.928;25.556;2022-08-24T02:48:54;7.72;;;5.18;;
11911;SDS011;6016;41.928;25.556;2022-08-24T02:51:25;11.65;;;7.95;;
11911;SDS011;6016;41.928;25.556;2022-08-24T02:53:53;9.95;;;7.15;;
11911;SDS011;6016;41.928;25.556;2022-08-24T02:56:21;9.40;;;6.13;;
11911;SDS011;6016;41.928;25.556;2022-08-24T02:58:48;9.05;;;6.05;;
11911;SDS011;6016;41.928;25.556;2022-08-24T03:01:15;11.63;;;6.68;;
11911;SDS011;6016;41.928;25.556;2022-08-24T03:03:42;12.13;;;7.20;;
11911;SDS011;6016;41.928;25.556;2022-08-24T03:06:10;11.68;;;6.78;;
11911;SDS011;6016;41.928;25.556;2022-08-24T03:08:39;8.88;;;5.88;;
11911;SDS011;6016;41.928;25.556;2022-08-24T03:11:06;9.05;;;5.90;;
11911;SDS011;6016;41.928;25.556;2022-08-24T03:13:33;19.02;;;10.13;;
11911;SDS011;6016;41.928;25.556;2022-08-24T03:16:01;13.77;;;9.50;;
11911;SDS011;6016;41.928;25.556;2022-08-24T03:18:28;8.38;;;5.95;;
11911;SDS011;6016;41.928;25.556;2022-08-24T03:20:56;8.38;;;6.00;;
11911;SDS011;6016;41.928;25.556;2022-08-24T03:23:24;9.60;;;6.50;;
11911;SDS011;6016;41.928;25.556;2022-08-24T03:25:53;11.82;;;7.07;;
11911;SDS011;6016;41.928;25.556;2022-08-24T03:28:21;9.38;;;6.00;;
11911;SDS011;6016;41.928;25.556;2022-08-24T03:30:49;11.60;;;6.32;;
11911;SDS011;6016;41.928;25.556;2022-08-24T03:33:16;10.18;;;6.82;;
11911;SDS011;6016;41.928;25.556;2022-08-24T03:35:43;12.27;;;6.57;;
11911;SDS011;6016;41.928;25.556;2022-08-24T03:38:10;9.50;;;5.55;;
11911;SDS011;6016;41.928;25.556;2022-08-24T03:40:37;9.05;;;5.65;;
11911;SDS011;6016;41.928;25.556;2022-08-24T03:43:06;9.68;;;5.75;;
11911;SDS011;6016;41.928;25.556;2022-08-24T03:45:53;8.93;;;5.40;;
11911;SDS011;6016;41.928;25.556;2022-08-24T03:48:20;8.55;;;5.68;;
11911;SDS011;6016;41.928;25.556;2022-08-24T03:50:48;9.70;;;5.43;;
11911;SDS011;6016;41.928;25.556;2022-08-24T03:53:15;10.48;;;6.38;;
11911;SDS011;6016;41.928;25.556;2022-08-24T03:55:42;11.35;;;6.10;;
11911;SDS011;6016;41.928;25.556;2022-08-24T03:58:10;9.23;;;5.93;;
11911;SDS011;6016;41.928;25.556;2022-08-24T04:00:38;10.40;;;6.18;;
11911;SDS011;6016;41.928;25.556;2022-08-24T04:03:07;8.50;;;5.30;;
11911;SDS011;6016;41.928;25.556;2022-08-24T04:05:34;8.93;;;4.55;;
11911;SDS011;6016;41.928;25.556;2022-08-24T04:08:01;10.35;;;5.53;;
11911;SDS011;6016;41.928;25.556;2022-08-24T04:10:28;6.57;;;4.65;;
11911;SDS011;6016;41.928;25.556;2022-08-24T04:12:56;8.75;;;5.00;;
11911;SDS011;6016;41.928;25.556;2022-08-24T04:15:27;9.43;;;4.63;;
11911;SDS011;6016;41.928;25.556;2022-08-24T04:17:55;9.85;;;5.80;;
11911;SDS011;6016;41.928;25.556;2022-08-24T04:20:22;8.98;;;5.30;;
11911;SDS011;6016;41.928;25.556;2022-08-24T04:22:49;7.90;;;5.10;;
11911;SDS011;6016;41.928;25.556;2022-08-24T04:25:16;8.20;;;5.18;;
11911;SDS011;6016;41.928;25.556;2022-08-24T04:27:43;9.20;;;5.45;;
11911;SDS011;6016;41.928;25.556;2022-08-24T04:30:11;8.85;;;5.65;;
11911;SDS011;6016;41.928;25.556;2022-08-24T04:32:41;10.30;;;4.60;;
11911;SDS011;6016;41.928;25.556;2022-08-24T04:35:08;8.15;;;4.70;;
11911;SDS011;6016;41.928;25.556;2022-08-24T04:37:35;8.77;;;6.28;;
11911;SDS011;6016;41.928;25.556;2022-08-24T04:40:03;9.48;;;6.28;;
11911;SDS011;6016;41.928;25.556;2022-08-24T04:42:31;10.07;;;6.40;;
11911;SDS011;6016;41.928;25.556;2022-08-24T04:44:58;11.38;;;6.43;;
11911;SDS011;6016;41.928;25.556;2022-08-24T04:47:25;12.63;;;6.60;;
11911;SDS011;6016;41.928;25.556;2022-08-24T04:49:53;9.70;;;6.18;;
11911;SDS011;6016;41.928;25.556;2022-08-24T04:52:20;8.30;;;5.60;;
11911;SDS011;6016;41.928;25.556;2022-08-24T04:54:47;8.60;;;5.47;;
11911;SDS011;6016;41.928;25.556;2022-08-24T04:57:14;11.52;;;5.97;;
11911;SDS011;6016;41.928;25.556;2022-08-24T04:59:41;8.93;;;5.40;;
11911;SDS011;6016;41.928;25.556;2022-08-24T05:02:08;10.93;;;5.75;;
11911;SDS011;6016;41.928;25.556;2022-08-24T05:04:35;11.07;;;6.88;;
11911;SDS011;6016;41.928;25.556;2022-08-24T05:07:04;11.20;;;7.63;;
11911;SDS011;6016;41.928;25.556;2022-08-24T05:09:31;10.52;;;6.15;;
11911;SDS011;6016;41.928;25.556;2022-08-24T05:11:58;12.95;;;6.30;;
11911;SDS011;6016;41.928;25.556;2022-08-24T05:14:25;8.05;;;5.03;;
11911;SDS011;6016;41.928;25.556;2022-08-24T05:16:53;10.18;;;5.10;;
11911;SDS011;6016;41.928;25.556;2022-08-24T05:19:20;9.80;;;5.57;;
11911;SDS011;6016;41.928;25.556;2022-08-24T05:21:48;9.88;;;6.00;;
11911;SDS011;6016;41.928;25.556;2022-08-24T05:24:16;7.88;;;5.53;;
11911;SDS011;6016;41.928;25.556;2022-08-24T05:26:43;8.32;;;5.15;;
11911;SDS011;6016;41.928;25.556;2022-08-24T05:29:11;9.43;;;5.07;;
11911;SDS011;6016;41.928;25.556;2022-08-24T05:31:41;12.38;;;6.03;;
11911;SDS011;6016;41.928;25.556;2022-08-24T05:34:09;9.00;;;5.32;;
11911;SDS011;6016;41.928;25.556;2022-08-24T05:36:36;8.73;;;5.85;;
11911;SDS011;6016;41.928;25.556;2022-08-24T05:39:07;8.77;;;5.38;;
11911;SDS011;6016;41.928;25.556;2022-08-24T05:41:37;10.93;;;5.38;;
11911;SDS011;6016;41.928;25.556;2022-08-24T05:44:05;7.93;;;5.20;;
11911;SDS011;6016;41.928;25.556;2022-08-24T05:46:32;11.43;;;6.25;;
11911;SDS011;6016;41.928;25.556;2022-08-24T05:48:59;12.23;;;6.50;;
11911;SDS011;6016;41.928;25.556;2022-08-24T05:51:26;10.45;;;5.63;;
11911;SDS011;6016;41.928;25.556;2022-08-24T05:53:54;9.38;;;4.88;;
11911;SDS011;6016;41.928;25.556;2022-08-24T05:56:21;11.13;;;6.10;;
11911;SDS011;6016;41.928;25.556;2022-08-24T05:58:50;8.95;;;4.55;;
11911;SDS011;6016;41.928;25.556;2022-08-24T06:01:18;9.45;;;5.90;;
11911;SDS011;6016;41.928;25.556;2022-08-24T06:03:48;8.85;;;5.20;;
11911;SDS011;6016;41.928;25.556;2022-08-24T06:06:17;7.90;;;5.18;;
11911;SDS011;6016;41.928;25.556;2022-08-24T06:08:46;7.95;;;5.75;;
11911;SDS011;6016;41.928;25.556;2022-08-24T06:11:18;9.15;;;5.43;;
11911;SDS011;6016;41.928;25.556;2022-08-24T06:13:50;13.82;;;9.10;;
11911;SDS011;6016;41.928;25.556;2022-08-24T06:16:18;20.48;;;10.07;;
11911;SDS011;6016;41.928;25.556;2022-08-24T06:18:46;13.10;;;9.57;;
11911;SDS011;6016;41.928;25.556;2022-08-24T06:21:15;11.75;;;6.30;;
11911;SDS011;6016;41.928;25.556;2022-08-24T06:23:44;10.63;;;6.22;;
11911;SDS011;6016;41.928;25.556;2022-08-24T06:26:11;8.02;;;5.82;;
11911;SDS011;6016;41.928;25.556;2022-08-24T06:28:57;11.48;;;6.35;;
11911;SDS011;6016;41.928;25.556;2022-08-24T06:31:26;10.30;;;5.93;;
11911;SDS011;6016;41.928;25.556;2022-08-24T06:33:54;13.25;;;5.72;;
11911;SDS011;6016;41.928;25.556;2022-08-24T06:36:21;34.03;;;10.68;;
11911;SDS011;6016;41.928;25.556;2022-08-24T06:38:48;22.77;;;6.20;;
11911;SDS011;6016;41.928;25.556;2022-08-24T06:41:15;13.90;;;5.57;;
11911;SDS011;6016;41.928;25.556;2022-08-24T06:43:42;11.93;;;5.75;;
11911;SDS011;6016;41.928;25.556;2022-08-24T06:46:10;11.52;;;5.28;;
11911;SDS011;6016;41.928;25.556;2022-08-24T06:48:37;15.48;;;7.85;;
11911;SDS011;6016;41.928;25.556;2022-08-24T06:51:07;9.07;;;5.05;;
11911;SDS011;6016;41.928;25.556;2022-08-24T06:53:35;14.55;;;5.50;;
11911;SDS011;6016;41.928;25.556;2022-08-24T06:56:02;9.63;;;5.50;;
11911;SDS011;6016;41.928;25.556;2022-08-24T06:58:29;8.18;;;5.70;;
11911;SDS011;6016;41.928;25.556;2022-08-24T07:00:57;7.72;;;5.05;;
11911;SDS011;6016;41.928;25.556;2022-08-24T07:03:34;8.48;;;4.97;;
11911;SDS011;6016;41.928;25.556;2022-08-24T07:06:01;7.80;;;4.88;;
11911;SDS011;6016;41.928;25.556;2022-08-24T07:08:29;8.15;;;5.38;;
11911;SDS011;6016;41.928;25.556;2022-08-24T07:10:56;10.57;;;5.40;;
11911;SDS011;6016;41.928;25.556;2022-08-24T07:13:23;7.28;;;4.90;;
11911;SDS011;6016;41.928;25.556;2022-08-24T07:15:50;7.68;;;5.00;;
11911;SDS011;6016;41.928;25.556;2022-08-24T07:18:18;9.70;;;5.45;;
11911;SDS011;6016;41.928;25.556;2022-08-24T07:20:47;7.97;;;5.60;;
11911;SDS011;6016;41.928;25.556;2022-08-24T07:23:15;8.48;;;5.63;;
11911;SDS011;6016;41.928;25.556;2022-08-24T07:25:43;12.90;;;6.15;;
11911;SDS011;6016;41.928;25.556;2022-08-24T07:28:11;13.43;;;6.10;;
11911;SDS011;6016;41.928;25.556;2022-08-24T07:30:39;7.78;;;6.22;;
11911;SDS011;6016;41.928;25.556;2022-08-24T07:33:07;6.95;;;5.47;;
11911;SDS011;6016;41.928;25.556;2022-08-24T07:35:34;11.80;;;6.38;;
11911;SDS011;6016;41.928;25.556;2022-08-24T07:38:04;9.57;;;5.50;;
11911;SDS011;6016;41.928;25.556;2022-08-24T07:40:32;8.43;;;5.55;;
11911;SDS011;6016;41.928;25.556;2022-08-24T07:43:00;10.70;;;6.22;;
11911;SDS011;6016;41.928;25.556;2022-08-24T07:45:27;10.50;;;5.55;;
11911;SDS011;6016;41.928;25.556;2022-08-24T07:47:55;11.88;;;5.90;;
11911;SDS011;6016;41.928;25.556;2022-08-24T07:50:22;8.63;;;5.47;;
11911;SDS011;6016;41.928;25.556;2022-08-24T07:52:49;9.25;;;5.70;;
11911;SDS011;6016;41.928;25.556;2022-08-24T07:55:18;8.15;;;5.70;;
11911;SDS011;6016;41.928;25.556;2022-08-24T07:57:45;6.82;;;5.10;;
11911;SDS011;6016;41.928;25.556;2022-08-24T08:00:13;7.32;;;5.07;;
11911;SDS011;6016;41.928;25.556;2022-08-24T08:02:43;7.13;;;4.68;;
11911;SDS011;6016;41.928;25.556;2022-08-24T08:05:11;6.55;;;4.78;;
11911;SDS011;6016;41.928;25.556;2022-08-24T08:07:39;8.40;;;6.07;;
11911;SDS011;6016;41.928;25.556;2022-08-24T08:10:06;7.85;;;5.30;;
11911;SDS011;6016;41.928;25.556;2022-08-24T08:12:36;12.98;;;6.13;;
11911;SDS011;6016;41.928;25.556;2022-08-24T08:15:04;8.90;;;5.28;;
11911;SDS011;6016;41.928;25.556;2022-08-24T08:17:33;9.10;;;5.32;;
11911;SDS011;6016;41.928;25.556;2022-08-24T08:20:01;8.63;;;4.97;;
11911;SDS011;6016;41.928;25.556;2022-08-24T08:22:28;8.75;;;5.70;;
11911;SDS011;6016;41.928;25.556;2022-08-24T08:25:13;8.23;;;5.10;;
11911;SDS011;6016;41.928;25.556;2022-08-24T08:27:44;9.18;;;5.13;;
11911;SDS011;6016;41.928;25.556;2022-08-24T08:30:12;5.88;;;4.57;;
11911;SDS011;6016;41.928;25.556;2022-08-24T08:32:39;7.82;;;4.43;;
11911;SDS011;6016;41.928;25.556;2022-08-24T08:35:06;9.73;;;5.00;;
11911;SDS011;6016;41.928;25.556;2022-08-24T08:37:34;8.50;;;4.50;;
11911;SDS011;6016;41.928;25.556;2022-08-24T08:40:02;9.48;;;4.45;;
11911;SDS011;6016;41.928;25.556;2022-08-24T08:45:30;10.02;;;5.28;;
11911;SDS011;6016;41.928;25.556;2022-08-24T08:48:23;9.10;;;4.95;;
11911;SDS011;6016;41.928;25.556;2022-08-24T08:51:38;9.00;;;4.75;;
11911;SDS011;6016;41.928;25.556;2022-08-24T08:57:08;7.53;;;4.63;;
11911;SDS011;6016;41.928;25.556;2022-08-24T09:02:32;10.95;;;4.82;;
11911;SDS011;6016;41.928;25.556;2022-08-24T09:05:29;9.07;;;5.32;;
11911;SDS011;6016;41.928;25.556;2022-08-24T09:08:23;12.68;;;5.10;;
11911;SDS011;6016;41.928;25.556;2022-08-24T09:11:01;7.78;;;4.47;;
11911;SDS011;6016;41.928;25.556;2022-08-24T09:16:42;10.43;;;4.60;;
11911;SDS011;6016;41.928;25.556;2022-08-24T09:22:07;12.13;;;6.10;;
11911;SDS011;6016;41.928;25.556;2022-08-24T09:24:43;11.20;;;6.30;;
11911;SDS011;6016;41.928;25.556;2022-08-24T09:27:24;8.75;;;5.57;;
11911;SDS011;6016;41.928;25.556;2022-08-24T09:30:03;10.00;;;5.35;;
11911;SDS011;6016;41.928;25.556;2022-08-24T09:32:37;11.73;;;5.57;;
11911;SDS011;6016;41.928;25.556;2022-08-24T09:35:22;7.43;;;5.43;;
11911;SDS011;6016;41.928;25.556;2022-08-24T09:37:59;10.25;;;5.47;;
11911;SDS011;6016;41.928;25.556;2022-08-24T09:40:39;8.68;;;5.22;;
11911;SDS011;6016;41.928;25.556;2022-08-24T09:43:29;9.60;;;5.80;;
11911;SDS011;6016;41.928;25.556;2022-08-24T09:52:32;27.27;;;11.52;;
11911;SDS011;6016;41.928;25.556;2022-08-24T09:55:35;12.98;;;6.30;;
11911;SDS011;6016;41.928;25.556;2022-08-24T09:58:19;13.20;;;6.03;;
11911;SDS011;6016;41.928;25.556;2022-08-24T10:01:00;13.05;;;5.95;;
11911;SDS011;6016;41.928;25.556;2022-08-24T10:03:42;13.18;;;6.32;;
11911;SDS011;6016;41.928;25.556;2022-08-24T10:06:24;12.77;;;6.10;;
11911;SDS011;6016;41.928;25.556;2022-08-24T10:09:02;10.48;;;5.38;;
11911;SDS011;6016;41.928;25.556;2022-08-24T10:11:44;12.70;;;6.07;;
11911;SDS011;6016;41.928;25.556;2022-08-24T10:14:18;9.15;;;5.68;;
11911;SDS011;6016;41.928;25.556;2022-08-24T10:17:03;10.38;;;5.60;;
11911;SDS011;6016;41.928;25.556;2022-08-24T10:19:44;12.18;;;5.78;;
11911;SDS011;6016;41.928;25.556;2022-08-24T10:22:23;12.05;;;5.28;;
11911;SDS011;6016;41.928;25.556;2022-08-24T10:25:13;11.55;;;5.65;;
11911;SDS011;6016;41.928;25.556;2022-08-24T10:27:54;11.13;;;5.18;;
11911;SDS011;6016;41.928;25.556;2022-08-24T10:33:23;11.77;;;5.55;;
11911;SDS011;6016;41.928;25.556;2022-08-24T10:39:00;14.95;;;8.30;;
11911;SDS011;6016;41.928;25.556;2022-08-24T10:42:06;12.68;;;7.15;;
11911;SDS011;6016;41.928;25.556;2022-08-24T10:45:23;13.35;;;5.60;;
11911;SDS011;6016;41.928;25.556;2022-08-24T10:48:17;9.25;;;4.97;;
11911;SDS011;6016;41.928;25.556;2022-08-24T10:51:07;13.55;;;6.00;;
11911;SDS011;6016;41.928;25.556;2022-08-24T10:53:46;11.00;;;5.28;;
11911;SDS011;6016;41.928;25.556;2022-08-24T10:56:16;13.27;;;6.03;;
11911;SDS011;6016;41.928;25.556;2022-08-24T10:58:56;12.27;;;5.50;;
11911;SDS011;6016;41.928;25.556;2022-08-24T11:01:28;10.93;;;5.80;;
11911;SDS011;6016;41.928;25.556;2022-08-24T11:04:02;12.10;;;5.10;;
11911;SDS011;6016;41.928;25.556;2022-08-24T11:06:33;8.70;;;5.10;;
11911;SDS011;6016;41.928;25.556;2022-08-24T11:09:04;17.77;;;5.32;;
11911;SDS011;6016;41.928;25.556;2022-08-24T11:11:34;13.38;;;5.50;;
11911;SDS011;6016;41.928;25.556;2022-08-24T11:14:05;10.38;;;5.25;;
11911;SDS011;6016;41.928;25.556;2022-08-24T11:16:35;13.88;;;5.25;;
11911;SDS011;6016;41.928;25.556;2022-08-24T11:19:05;12.98;;;5.60;;
11911;SDS011;6016;41.928;25.556;2022-08-24T11:21:40;14.73;;;5.28;;
11911;SDS011;6016;41.928;25.556;2022-08-24T11:24:11;15.52;;;5.00;;
11911;SDS011;6016;41.928;25.556;2022-08-24T11:26:51;14.73;;;5.05;;
11911;SDS011;6016;41.928;25.556;2022-08-24T11:29:22;12.75;;;4.95;;
11911;SDS011;6016;41.928;25.556;2022-08-24T11:31:55;13.35;;;4.72;;
11911;SDS011;6016;41.928;25.556;2022-08-24T11:34:30;10.55;;;4.88;;
11911;SDS011;6016;41.928;25.556;2022-08-24T11:37:00;12.23;;;5.03;;
11911;SDS011;6016;41.928;25.556;2022-08-24T11:39:29;10.95;;;4.78;;
11911;SDS011;6016;41.928;25.556;2022-08-24T11:42:01;14.40;;;5.45;;
11911;SDS011;6016;41.928;25.556;2022-08-24T11:44:40;12.30;;;5.18;;
11911;SDS011;6016;41.928;25.556;2022-08-24T11:50:11;12.55;;;5.70;;
11911;SDS011;6016;41.928;25.556;2022-08-24T11:52:50;13.20;;;4.90;;
11911;SDS011;6016;41.928;25.556;2022-08-24T11:55:26;10.05;;;4.78;;
11911;SDS011;6016;41.928;25.556;2022-08-24T11:58:00;12.73;;;4.75;;
11911;SDS011;6016;41.928;25.556;2022-08-24T12:00:35;14.15;;;4.68;;
11911;SDS011;6016;41.928;25.556;2022-08-24T12:03:16;10.82;;;4.32;;
11911;SDS011;6016;41.928;25.556;2022-08-24T12:05:58;13.15;;;4.32;;
11911;SDS011;6016;41.928;25.556;2022-08-24T12:08:32;16.13;;;4.68;;
11911;SDS011;6016;41.928;25.556;2022-08-24T12:11:06;12.15;;;3.97;;
11911;SDS011;6016;41.928;25.556;2022-08-24T12:13:44;12.07;;;4.30;;
11911;SDS011;6016;41.928;25.556;2022-08-24T12:16:21;14.27;;;4.43;;
11911;SDS011;6016;41.928;25.556;2022-08-24T12:18:56;7.65;;;4.07;;
11911;SDS011;6016;41.928;25.556;2022-08-24T12:21:28;11.07;;;4.05;;
11911;SDS011;6016;41.928;25.556;2022-08-24T12:23:59;14.57;;;4.50;;
11911;SDS011;6016;41.928;25.556;2022-08-24T12:26:29;15.10;;;3.70;;
11911;SDS011;6016;41.928;25.556;2022-08-24T12:29:05;17.00;;;3.65;;
11911;SDS011;6016;41.928;25.556;2022-08-24T12:31:37;14.27;;;4.13;;
11911;SDS011;6016;41.928;25.556;2022-08-24T12:34:10;14.00;;;3.28;;
11911;SDS011;6016;41.928;25.556;2022-08-24T12:36:46;12.75;;;3.53;;
11911;SDS011;6016;41.928;25.556;2022-08-24T12:39:21;15.98;;;3.45;;
11911;SDS011;6016;41.928;25.556;2022-08-24T12:41:54;14.53;;;4.10;;
11911;SDS011;6016;41.928;25.556;2022-08-24T12:44:29;14.85;;;3.17;;
11911;SDS011;6016;41.928;25.556;2022-08-24T12:47:02;16.80;;;3.90;;
11911;SDS011;6016;41.928;25.556;2022-08-24T12:49:29;11.82;;;3.58;;
11911;SDS011;6016;41.928;25.556;2022-08-24T12:52:06;25.30;;;4.15;;
11911;SDS011;6016;41.928;25.556;2022-08-24T12:54:55;23.05;;;4.68;;
11911;SDS011;6016;41.928;25.556;2022-08-24T12:57:34;23.55;;;4.20;;
11911;SDS011;6016;41.928;25.556;2022-08-24T13:00:11;14.20;;;4.35;;
11911;SDS011;6016;41.928;25.556;2022-08-24T13:02:44;13.60;;;3.90;;
11911;SDS011;6016;41.928;25.556;2022-08-24T13:05:21;21.08;;;4.18;;
11911;SDS011;6016;41.928;25.556;2022-08-24T13:07:48;12.10;;;3.75;;
11911;SDS011;6016;41.928;25.556;2022-08-24T13:10:36;16.40;;;5.78;;
11911;SDS011;6016;41.928;25.556;2022-08-24T13:13:19;13.23;;;3.80;;
11911;SDS011;6016;41.928;25.556;2022-08-24T13:15:50;16.67;;;4.25;;
11911;SDS011;6016;41.928;25.556;2022-08-24T13:18:44;22.80;;;5.75;;
11911;SDS011;6016;41.928;25.556;2022-08-24T13:30:21;14.25;;;3.97;;
11911;SDS011;6016;41.928;25.556;2022-08-24T13:32:57;19.95;;;4.72;;
11911;SDS011;6016;41.928;25.556;2022-08-24T13:38:40;19.85;;;4.93;;
11911;SDS011;6016;41.928;25.556;2022-08-24T13:41:29;14.43;;;4.22;;
11911;SDS011;6016;41.928;25.556;2022-08-24T13:44:15;17.58;;;4.30;;
11911;SDS011;6016;41.928;25.556;2022-08-24T13:46:54;20.92;;;4.55;;
11911;SDS011;6016;41.928;25.556;2022-08-24T13:49:43;20.30;;;4.70;;
11911;SDS011;6016;41.928;25.556;2022-08-24T13:52:21;19.70;;;4.38;;
11911;SDS011;6016;41.928;25.556;2022-08-24T13:55:04;18.20;;;4.85;;
11911;SDS011;6016;41.928;25.556;2022-08-24T13:57:37;21.52;;;4.40;;
11911;SDS011;6016;41.928;25.556;2022-08-24T14:00:15;21.88;;;4.15;;
11911;SDS011;6016;41.928;25.556;2022-08-24T14:03:02;21.42;;;4.30;;
11911;SDS011;6016;41.928;25.556;2022-08-24T14:05:48;21.73;;;4.22;;
11911;SDS011;6016;41.928;25.556;2022-08-24T14:08:28;22.80;;;4.78;;
11911;SDS011;6016;41.928;25.556;2022-08-24T14:11:11;22.13;;;4.22;;
11911;SDS011;6016;41.928;25.556;2022-08-24T14:13:51;16.27;;;4.32;;
11911;SDS011;6016;41.928;25.556;2022-08-24T14:16:33;20.33;;;4.80;;
11911;SDS011;6016;41.928;25.556;2022-08-24T14:19:33;16.95;;;4.40;;
11911;SDS011;6016;41.928;25.556;2022-08-24T14:22:16;19.83;;;4.30;;
11911;SDS011;6016;41.928;25.556;2022-08-24T14:24:57;17.98;;;4.15;;
11911;SDS011;6016;41.928;25.556;2022-08-24T14:27:40;15.25;;;4.40;;
11911;SDS011;6016;41.928;25.556;2022-08-24T14:33:07;21.58;;;3.95;;
11911;SDS011;6016;41.928;25.556;2022-08-24T14:35:43;15.77;;;4.00;;
11911;SDS011;6016;41.928;25.556;2022-08-24T14:38:21;18.13;;;4.20;;
11911;SDS011;6016;41.928;25.556;2022-08-24T14:41:05;18.27;;;4.38;;
11911;SDS011;6016;41.928;25.556;2022-08-24T14:43:52;22.92;;;3.80;;
11911;SDS011;6016;41.928;25.556;2022-08-24T14:46:34;22.00;;;4.65;;
11911;SDS011;6016;41.928;25.556;2022-08-24T14:49:19;16.13;;;4.45;;
11911;SDS011;6016;41.928;25.556;2022-08-24T14:52:01;16.58;;;4.35;;
11911;SDS011;6016;41.928;25.556;2022-08-24T14:54:37;15.10;;;3.63;;
11911;SDS011;6016;41.928;25.556;2022-08-24T14:57:20;15.60;;;4.32;;
11911;SDS011;6016;41.928;25.556;2022-08-24T15:00:07;12.18;;;3.80;;
11911;SDS011;6016;41.928;25.556;2022-08-24T15:05:42;18.90;;;4.05;;
11911;SDS011;6016;41.928;25.556;2022-08-24T15:08:26;18.17;;;4.72;;
11911;SDS011;6016;41.928;25.556;2022-08-24T15:10:58;21.92;;;3.95;;
11911;SDS011;6016;41.928;25.556;2022-08-24T15:13:36;17.65;;;4.35;;
11911;SDS011;6016;41.928;25.556;2022-08-24T15:16:09;26.92;;;4.40;;
11911;SDS011;6016;41.928;25.556;2022-08-24T15:18:40;20.77;;;4.85;;
11911;SDS011;6016;41.928;25.556;2022-08-24T15:21:25;15.43;;;4.50;;
11911;SDS011;6016;41.928;25.556;2022-08-24T15:24:03;16.27;;;4.22;;
11911;SDS011;6016;41.928;25.556;2022-08-24T15:29:28;20.40;;;4.55;;
11911;SDS011;6016;41.928;25.556;2022-08-24T15:31:58;27.10;;;5.07;;
11911;SDS011;6016;41.928;25.556;2022-08-24T15:34:33;21.77;;;4.55;;
11911;SDS011;6016;41.928;25.556;2022-08-24T15:37:02;25.92;;;4.80;;
11911;SDS011;6016;41.928;25.556;2022-08-24T15:39:29;23.60;;;4.63;;
11911;SDS011;6016;41.928;25.556;2022-08-24T15:41:57;22.63;;;4.60;;
11911;SDS011;6016;41.928;25.556;2022-08-24T15:44:25;16.23;;;4.10;;
11911;SDS011;6016;41.928;25.556;2022-08-24T15:46:58;17.65;;;4.10;;
11911;SDS011;6016;41.928;25.556;2022-08-24T15:49:27;21.10;;;4.38;;
11911;SDS011;6016;41.928;25.556;2022-08-24T15:51:59;20.25;;;4.10;;
11911;SDS011;6016;41.928;25.556;2022-08-24T15:54:31;28.90;;;5.00;;
11911;SDS011;6016;41.928;25.556;2022-08-24T15:57:01;32.40;;;14.18;;
11911;SDS011;6016;41.928;25.556;2022-08-24T15:59:43;19.70;;;4.63;;
11911;SDS011;6016;41.928;25.556;2022-08-24T16:02:25;16.38;;;3.63;;
11911;SDS011;6016;41.928;25.556;2022-08-24T16:04:59;25.00;;;4.40;;